| time (UTC) | temp F | wind direction | speed MPH | gust MPH | rain 1hr in | rain 24hr in | rain mn in | humidity % | barometer mb |
| 20260903143238 | 59 | 195 | 0.0 | 0.0 | 0.00 | 0.22 | 0.19 | 85 | 1001.4 |
| 20260903142208 | 59 | 210 | 0.0 | 0.0 | 0.00 | 0.22 | 0.19 | 86 | 1001.4 |
| 20260903141208 | 59 | 195 | 0.0 | 0.0 | 0.00 | 0.22 | 0.19 | 87 | 1001.3 |
| 20260903140208 | 59 | 186 | 0.0 | 0.0 | 0.00 | 0.22 | 0.19 | 88 | 1001.3 |
| 20260903135138 | 58 | 203 | 0.0 | 0.0 | 0.00 | 0.22 | 0.19 | 88 | 1001.4 |
| 20260903134138 | 58 | 202 | 0.0 | 0.0 | 0.00 | 0.22 | 0.19 | 88 | 1001.5 |
| 20260903133108 | 58 | 203 | 0.0 | 0.0 | 0.00 | 0.22 | 0.19 | 88 | 1001.4 |
| 20260903132108 | 58 | 203 | 0.0 | 0.0 | 0.00 | 0.22 | 0.19 | 89 | 1001.3 |
| 20260903131108 | 58 | 203 | 0.0 | 0.0 | 0.00 | 0.22 | 0.19 | 88 | 1001.4 |
| 20260903130108 | 58 | 198 | 0.0 | 0.0 | 0.00 | 0.22 | 0.19 | 87 | 1001.5 |
| 20260903125038 | 58 | 178 | 0.0 | 0.0 | 0.00 | 0.22 | 0.19 | 88 | 1001.4 |
| 20260903124038 | 58 | 194 | 0.0 | 0.0 | 0.00 | 0.22 | 0.19 | 91 | 1001.4 |
| 20260903123038 | 57 | 195 | 0.0 | 0.0 | 0.00 | 0.22 | 0.19 | 89 | 1001.3 |
| 20260903122038 | 57 | 178 | 0.0 | 0.0 | 0.00 | 0.22 | 0.19 | 89 | 1001.3 |
| 20260903121038 | 57 | 161 | 0.0 | 0.0 | 0.00 | 0.22 | 0.19 | 89 | 1001.4 |
| 20260903120038 | 57 | 145 | 0.0 | 0.0 | 0.00 | 0.22 | 0.19 | 88 | 1001.4 |
| 20260903115038 | 57 | 184 | 0.0 | 0.0 | 0.00 | 0.22 | 0.19 | 89 | 1001.3 |
| 20260903114008 | 57 | 185 | 0.0 | 0.0 | 0.00 | 0.22 | 0.19 | 89 | 1001.2 |
| 20260903113008 | 57 | 185 | 0.0 | 0.0 | 0.00 | 0.22 | 0.19 | 88 | 1001.2 |
| 20260903112008 | 56 | 185 | 0.0 | 0.0 | 0.00 | 0.22 | 0.19 | 88 | 1001.1 |
| 20260903111008 | 56 | 185 | 0.0 | 0.0 | 0.00 | 0.22 | 0.19 | 89 | 1001.1 |
| 20260903105938 | 56 | 185 | 0.0 | 0.0 | 0.00 | 0.22 | 0.19 | 89 | 1001.0 |
| 20260903104938 | 56 | 185 | 0.0 | 0.0 | 0.00 | 0.22 | 0.19 | 89 | 1001.0 |
| 20260903103938 | 56 | 185 | 0.0 | 0.0 | 0.00 | 0.22 | 0.19 | 89 | 1001.0 |
| 20260903102938 | 56 | 185 | 0.0 | 0.0 | 0.00 | 0.22 | 0.19 | 90 | 1000.9 |
| 20260903101938 | 56 | 185 | 0.0 | 0.0 | 0.00 | 0.22 | 0.19 | 91 | 1000.9 |
| 20260903100938 | 55 | 182 | 0.0 | 0.0 | 0.00 | 0.22 | 0.19 | 92 | 1000.9 |
| 20260903095938 | 55 | 197 | 0.0 | 0.0 | 0.00 | 0.22 | 0.19 | 92 | 1000.8 |
| 20260903094938 | 55 | 197 | 0.0 | 0.0 | 0.00 | 0.22 | 0.19 | 92 | 1000.8 |
| 20260903093938 | 55 | 197 | 0.0 | 0.0 | 0.00 | 0.22 | 0.19 | 92 | 1000.9 |
| 20260903092938 | 55 | 196 | 0.0 | 0.0 | 0.00 | 0.22 | 0.19 | 92 | 1000.8 |
| 20260903091908 | 54 | 196 | 0.0 | 0.0 | 0.00 | 0.22 | 0.19 | 93 | 1000.6 |
| 20260903090908 | 54 | 197 | 0.0 | 0.0 | 0.00 | 0.22 | 0.19 | 91 | 1000.6 |
| 20260903085838 | 54 | 197 | 0.0 | 0.0 | 0.00 | 0.22 | 0.19 | 92 | 1000.6 |
| 20260903084838 | 54 | 197 | 0.0 | 0.0 | 0.00 | 0.22 | 0.19 | 92 | 1000.5 |
| 20260903083807 | 54 | 200 | 0.0 | 0.0 | 0.00 | 0.22 | 0.19 | 93 | 1000.5 |
| 20260903082808 | 54 | 207 | 0.0 | 0.0 | 0.00 | 0.22 | 0.19 | 93 | 1000.5 |
| 20260903081737 | 54 | 207 | 0.0 | 0.0 | 0.00 | 0.22 | 0.19 | 93 | 1000.4 |
| 20260903080737 | 55 | 223 | 0.0 | 0.0 | 0.00 | 0.22 | 0.19 | 93 | 1000.4 |
| 20260903075737 | 54 | 223 | 0.0 | 0.0 | 0.00 | 0.22 | 0.19 | 93 | 1000.6 |
| 20260903074738 | 54 | 223 | 0.0 | 0.0 | 0.00 | 0.22 | 0.19 | 93 | 1000.5 |
| 20260903073707 | 54 | 223 | 0.0 | 0.0 | 0.00 | 0.22 | 0.19 | 93 | 1000.5 |
| 20260903072707 | 54 | 223 | 0.0 | 0.0 | 0.00 | 0.22 | 0.19 | 93 | 1000.5 |
| 20260903071637 | 53 | 224 | 0.0 | 0.0 | 0.00 | 0.22 | 0.19 | 93 | 1000.5 |
| 20260903070607 | 53 | 223 | 0.0 | 0.0 | 0.00 | 0.22 | 0.19 | 93 | 1000.5 |
| 20260903065607 | 54 | 223 | 0.0 | 0.0 | 0.01 | 0.22 | 0.19 | 93 | 1000.5 |
| 20260903064608 | 53 | 224 | 0.0 | 0.0 | 0.01 | 0.22 | 0.19 | 93 | 1000.4 |
| 20260903063607 | 53 | 224 | 0.0 | 0.0 | 0.02 | 0.22 | 0.19 | 93 | 1000.5 |
| 20260903062607 | 53 | 223 | 0.0 | 0.0 | 0.02 | 0.22 | 0.19 | 92 | 1000.4 |
| 20260903061607 | 53 | 223 | 0.0 | 0.0 | 0.03 | 0.22 | 0.19 | 92 | 1000.4 |
| 20260903060537 | 53 | 225 | 0.0 | 0.0 | 0.04 | 0.22 | 0.19 | 92 | 1000.4 |
| 20260903055537 | 53 | 225 | 0.0 | 0.0 | 0.04 | 0.21 | 0.18 | 93 | 1000.4 |
| 20260903054537 | 53 | 225 | 0.0 | 0.0 | 0.05 | 0.21 | 0.18 | 92 | 1000.4 |
| 20260903053537 | 53 | 225 | 0.0 | 0.0 | 0.05 | 0.20 | 0.17 | 92 | 1000.4 |
| 20260903052507 | 53 | 225 | 0.0 | 0.0 | 0.05 | 0.20 | 0.17 | 92 | 1000.5 |
| 20260903051437 | 53 | 224 | 0.0 | 0.0 | 0.05 | 0.19 | 0.16 | 92 | 1000.5 |
| 20260903050437 | 53 | 225 | 0.0 | 0.0 | 0.05 | 0.18 | 0.15 | 93 | 1000.4 |
| 20260903045437 | 52 | 225 | 0.0 | 0.0 | 0.06 | 0.17 | 0.14 | 92 | 1000.3 |
| 20260903044437 | 52 | 225 | 0.0 | 0.0 | 0.06 | 0.17 | 0.13 | 92 | 1000.3 |
| 20260903043437 | 53 | 225 | 0.0 | 0.0 | 0.06 | 0.16 | 0.13 | 92 | 1000.3 |
| 20260903042437 | 53 | 225 | 0.0 | 0.0 | 0.06 | 0.15 | 0.12 | 92 | 1000.2 |
| 20260903041437 | 53 | 224 | 0.0 | 0.0 | 0.06 | 0.14 | 0.11 | 92 | 1000.2 |
| 20260903040437 | 53 | 225 | 0.0 | 0.0 | 0.07 | 0.13 | 0.10 | 92 | 1000.2 |
| 20260903035437 | 53 | 225 | 0.0 | 0.0 | 0.06 | 0.12 | 0.09 | 92 | 1000.1 |
| 20260903034437 | 53 | 225 | 0.0 | 0.0 | 0.06 | 0.11 | 0.08 | 92 | 1000.1 |
| 20260903033437 | 53 | 225 | 0.0 | 0.0 | 0.05 | 0.10 | 0.07 | 92 | 1000.1 |
| 20260903032437 | 53 | 224 | 0.0 | 0.0 | 0.05 | 0.09 | 0.06 | 92 | 1000.0 |
| 20260903031437 | 53 | 224 | 0.0 | 0.0 | 0.04 | 0.09 | 0.06 | 93 | 1000.1 |
| 20260903030437 | 53 | 225 | 0.0 | 0.0 | 0.02 | 0.06 | 0.03 | 93 | 1000.2 |
| 20260903025437 | 53 | 224 | 0.0 | 0.0 | 0.02 | 0.06 | 0.02 | 93 | 1000.2 |
| 20260903024436 | 52 | 224 | 0.0 | 0.0 | 0.02 | 0.06 | 0.02 | 93 | 1000.1 |
| 20260903023436 | 52 | 224 | 0.0 | 0.0 | 0.02 | 0.06 | 0.02 | 93 | 1000.1 |
| 20260903022436 | 52 | 225 | 0.0 | 0.0 | 0.01 | 0.05 | 0.02 | 93 | 1000.2 |
| 20260903021436 | 52 | 225 | 0.0 | 0.0 | 0.01 | 0.05 | 0.02 | 93 | 1000.2 |
| 20260903020436 | 52 | 225 | 0.0 | 0.0 | 0.01 | 0.05 | 0.02 | 93 | 1000.2 |
| 20260903015436 | 52 | 224 | 0.0 | 0.0 | 0.00 | 0.04 | 0.01 | 93 | 1000.2 |
| 20260903014436 | 52 | 224 | 0.0 | 0.0 | 0.00 | 0.04 | 0.01 | 93 | 1000.2 |
| 20260903013436 | 52 | 225 | 0.0 | 0.0 | 0.00 | 0.04 | 0.01 | 93 | 1000.3 |
| 20260903012436 | 52 | 225 | 0.0 | 0.0 | 0.00 | 0.04 | 0.01 | 93 | 1000.3 |
| 20260903011436 | 52 | 225 | 0.0 | 0.0 | 0.00 | 0.04 | 0.01 | 93 | 1000.4 |
| 20260903010436 | 52 | 225 | 0.0 | 0.0 | 0.00 | 0.04 | 0.01 | 93 | 1000.4 |
| 20260903005436 | 52 | 225 | 0.0 | 0.0 | 0.00 | 0.04 | 0.01 | 93 | 1000.5 |
| 20260903004436 | 52 | 224 | 0.0 | 0.0 | 0.00 | 0.04 | 0.01 | 93 | 1000.5 |
| 20260903003436 | 52 | 224 | 0.0 | 0.0 | 0.00 | 0.04 | 0.01 | 93 | 1000.5 |
| 20260903002436 | 52 | 225 | 0.0 | 0.0 | 0.00 | 0.04 | 0.01 | 93 | 1000.6 |
| 20260903001436 | 52 | 224 | 0.0 | 0.0 | 0.00 | 0.04 | 0.01 | 93 | 1000.5 |
| 20260903000435 | 52 | 225 | 0.0 | 0.0 | 0.00 | 0.04 | 0.01 | 93 | 1000.5 |
| 20260902235435 | 52 | 225 | 0.0 | 0.0 | 0.00 | 0.04 | 0.01 | 93 | 1000.5 |
| 20260902234405 | 52 | 225 | 0.0 | 0.0 | 0.00 | 0.04 | 0.01 | 93 | 1000.7 |
| 20260902233335 | 51 | 225 | 0.0 | 0.0 | 0.00 | 0.04 | 0.01 | 93 | 1000.7 |
| 20260902232335 | 52 | 224 | 0.0 | 0.0 | 0.00 | 0.04 | 0.01 | 92 | 1000.9 |
| 20260902231335 | 52 | 225 | 0.0 | 0.0 | 0.01 | 0.04 | 0.01 | 92 | 1000.9 |
| 20260902230335 | 52 | 225 | 0.0 | 0.0 | 0.01 | 0.04 | 0.01 | 92 | 1000.8 |
| 20260902225306 | 52 | 225 | 0.0 | 0.0 | 0.00 | 0.04 | 0.01 | 92 | 1000.9 |
| 20260902224305 | 53 | 225 | 0.0 | 0.0 | 0.00 | 0.04 | 0.01 | 92 | 1000.9 |
| 20260902223305 | 53 | 225 | 0.0 | 0.0 | 0.00 | 0.04 | 0.01 | 92 | 1001.0 |
| 20260902222306 | 52 | 218 | 0.0 | 0.0 | 0.00 | 0.04 | 0.01 | 92 | 1001.2 |
| 20260902221305 | 52 | 218 | 0.0 | 0.0 | 0.00 | 0.03 | 0.00 | 92 | 1001.1 |
| 20260902220305 | 52 | 218 | 0.0 | 0.0 | 0.00 | 0.03 | 0.00 | 92 | 1001.3 |
| 20260902215235 | 52 | 217 | 0.0 | 0.0 | 0.01 | 0.03 | 0.03 | 92 | 1001.4 |
| 20260902214235 | 52 | 217 | 0.0 | 0.0 | 0.02 | 0.03 | 0.03 | 92 | 1001.5 |
| 20260902213235 | 53 | 217 | 0.0 | 0.0 | 0.02 | 0.03 | 0.03 | 92 | 1001.4 |
| 20260902212235 | 53 | 217 | 0.0 | 0.0 | 0.02 | 0.03 | 0.03 | 92 | 1001.4 |
| 20260902211205 | 53 | 217 | 0.0 | 0.0 | 0.03 | 0.03 | 0.03 | 91 | 1001.3 |
| 20260902210205 | 53 | 217 | 0.0 | 0.0 | 0.03 | 0.03 | 0.03 | 91 | 1001.3 |
| 20260902205205 | 53 | 217 | 0.0 | 0.0 | 0.02 | 0.02 | 0.02 | 91 | 1001.3 |
| 20260902204205 | 53 | 217 | 0.0 | 0.0 | 0.02 | 0.02 | 0.02 | 91 | 1001.3 |
| 20260902203205 | 53 | 217 | 0.0 | 0.0 | 0.02 | 0.02 | 0.02 | 90 | 1001.4 |
| 20260902202205 | 54 | 217 | 0.0 | 0.0 | 0.01 | 0.01 | 0.01 | 90 | 1001.5 |
| 20260902201204 | 54 | 217 | 0.0 | 0.0 | 0.00 | 0.00 | 0.00 | 89 | 1001.6 |
| 20260902200204 | 54 | 211 | 0.0 | 0.0 | 0.00 | 0.00 | 0.00 | 89 | 1001.7 |
| 20260902195204 | 54 | 211 | 0.0 | 0.0 | 0.00 | 0.00 | 0.00 | 88 | 1001.7 |
| 20260902194204 | 54 | 211 | 0.0 | 0.0 | 0.00 | 0.00 | 0.00 | 88 | 1001.6 |
| 20260902193204 | 54 | 211 | 0.0 | 0.0 | 0.00 | 0.00 | 0.00 | 89 | 1001.7 |
| 20260902192204 | 54 | 211 | 0.0 | 0.0 | 0.00 | 0.00 | 0.00 | 88 | 1001.7 |
| 20260902191204 | 54 | 209 | 0.0 | 0.0 | 0.00 | 0.00 | 0.00 | 88 | 1001.6 |
| 20260902190204 | 54 | 207 | 0.0 | 0.0 | 0.00 | 0.00 | 0.00 | 89 | 1001.8 |
| 20260902185205 | 54 | 210 | 0.0 | 0.0 | 0.00 | 0.00 | 0.00 | 89 | 1001.7 |
| 20260902184204 | 54 | 113 | 0.0 | 0.0 | 0.00 | 0.00 | 0.00 | 88 | 1001.7 |
| 20260902183204 | 54 | 111 | 0.0 | 0.0 | 0.00 | 0.00 | 0.00 | 87 | 1001.7 |
| 20260902182203 | 55 | 111 | 0.0 | 0.0 | 0.00 | 0.00 | 0.00 | 87 | 1001.7 |
| 20260902181203 | 55 | 111 | 0.0 | 0.0 | 0.00 | 0.00 | 0.00 | 86 | 1001.6 |
| 20260902180203 | 55 | 111 | 0.0 | 0.0 | 0.00 | 0.00 | 0.00 | 84 | 1001.7 |
| 20260902175203 | 56 | 111 | 0.0 | 0.0 | 0.00 | 0.00 | 0.00 | 84 | 1001.7 |
| 20260902174203 | 56 | 111 | 0.0 | 0.0 | 0.00 | 0.00 | 0.00 | 84 | 1001.7 |
| 20260902173203 | 57 | 111 | 0.0 | 0.0 | 0.00 | 0.00 | 0.00 | 82 | 1001.7 |
| 20260902172203 | 58 | 111 | 0.0 | 0.0 | 0.00 | 0.00 | 0.00 | 82 | 1001.8 |
| 20260902171203 | 58 | 111 | 0.0 | 0.0 | 0.00 | 0.00 | 0.00 | 82 | 1001.8 |
| 20260902170203 | 59 | 111 | 0.0 | 0.0 | 0.00 | 0.00 | 0.00 | 82 | 1001.8 |
| 20260902165203 | 59 | 111 | 0.0 | 0.0 | 0.00 | 0.00 | 0.00 | 81 | 1001.8 |
| 20260902164203 | 59 | 111 | 0.0 | 0.0 | 0.00 | 0.00 | 0.00 | 80 | 1001.8 |
| 20260902163203 | 59 | 111 | 0.0 | 0.0 | 0.00 | 0.00 | 0.00 | 82 | 1001.8 |
| 20260902162203 | 59 | 111 | 0.0 | 0.0 | 0.00 | 0.00 | 0.00 | 80 | 1001.7 |
| 20260902161203 | 59 | 111 | 0.0 | 0.0 | 0.00 | 0.00 | 0.00 | 80 | 1001.7 |
| 20260902160203 | 59 | 111 | 0.0 | 0.0 | 0.00 | 0.00 | 0.00 | 80 | 1001.7 |
| 20260902155203 | 59 | 111 | 0.0 | 0.0 | 0.00 | 0.00 | 0.00 | 80 | 1001.7 |
| 20260902154202 | 59 | 111 | 0.0 | 0.0 | 0.00 | 0.00 | 0.00 | 79 | 1001.8 |
| 20260902153202 | 59 | 111 | 0.0 | 0.0 | 0.00 | 0.00 | 0.00 | 80 | 1001.8 |
| 20260902152202 | 59 | 111 | 0.0 | 0.0 | 0.00 | 0.00 | 0.00 | 78 | 1001.8 |
| 20260902151202 | 59 | 111 | 0.0 | 0.0 | 0.00 | 0.00 | 0.00 | 78 | 1001.8 |
| 20260902150202 | 59 | 111 | 0.0 | 0.0 | 0.00 | 0.00 | 0.00 | 77 | 1001.9 |
| 20260902145202 | 59 | 118 | 0.0 | 0.0 | 0.00 | 0.00 | 0.00 | 76 | 1001.8 |
| 20260902144202 | 59 | 118 | 0.0 | 0.0 | 0.00 | 0.00 | 0.00 | 76 | 1001.9 |